createdAt,value
2017-08-02T00:00:05.805Z,54.10
2017-08-02T00:02:34.341Z,54.20
2017-08-02T00:05:01.948Z,54.10
2017-08-02T00:07:30.240Z,54.20
2017-08-02T00:09:58.505Z,54.30
2017-08-02T00:12:26.806Z,54.10
2017-08-02T00:14:54.342Z,54.10
2017-08-02T00:17:22.654Z,54.10
2017-08-02T00:19:50.162Z,54.10
2017-08-02T00:22:18.465Z,54.20
2017-08-02T00:24:45.958Z,54.10
2017-08-02T00:27:13.462Z,54.20
2017-08-02T00:29:41.784Z,54.70
2017-08-02T00:32:09.357Z,54.10
2017-08-02T00:34:36.933Z,54.10
2017-08-02T00:37:04.492Z,54.10
2017-08-02T00:39:32.803Z,53.80
2017-08-02T00:42:01.103Z,54.10
2017-08-02T00:44:28.601Z,54.10
2017-08-02T00:46:56.140Z,54.10
2017-08-02T00:49:23.650Z,54.10
2017-08-02T00:51:51.914Z,54.10
2017-08-02T00:54:20.235Z,54.10
2017-08-02T00:56:47.714Z,54.10
2017-08-02T00:59:15.238Z,54.10
2017-08-02T01:01:42.706Z,54.10
2017-08-02T01:04:10.234Z,54.10
2017-08-02T01:06:38.501Z,54.10
2017-08-02T01:09:06.770Z,54.20
2017-08-02T01:11:35.048Z,54.70
2017-08-02T01:14:03.328Z,54.10
2017-08-02T01:16:31.662Z,54.30
2017-08-02T01:18:59.202Z,54.10
2017-08-02T01:21:26.694Z,54.20
2017-08-02T01:23:54.213Z,54.20
2017-08-02T01:26:21.716Z,54.20
2017-08-02T01:28:49.200Z,54.20
2017-08-02T01:31:18.041Z,54.20
2017-08-02T01:33:45.560Z,54.20
2017-08-02T01:36:13.110Z,54.00
2017-08-02T01:38:40.642Z,54.10
2017-08-02T01:41:08.203Z,54.10
2017-08-02T01:43:35.762Z,54.10
2017-08-02T01:46:03.278Z,54.10
2017-08-02T01:48:30.812Z,54.30
2017-08-02T01:50:58.312Z,54.30
2017-08-02T01:53:25.835Z,54.40
2017-08-02T01:55:53.403Z,54.30
2017-08-02T01:58:20.913Z,54.40
2017-08-02T02:00:48.425Z,54.30
2017-08-02T02:03:15.978Z,54.20
2017-08-02T02:05:43.481Z,54.10
2017-08-02T02:08:11.006Z,54.30
2017-08-02T02:10:38.518Z,54.40
2017-08-02T02:13:06.798Z,54.30
2017-08-02T02:15:35.066Z,54.40
2017-08-02T02:18:03.369Z,54.20
2017-08-02T02:20:30.915Z,54.10
2017-08-02T02:22:58.433Z,54.40
2017-08-02T02:25:25.942Z,54.40
2017-08-02T02:27:53.441Z,54.10
2017-08-02T02:30:20.981Z,54.10
2017-08-02T02:32:48.486Z,54.40
2017-08-02T02:35:16.755Z,54.20
2017-08-02T02:37:44.282Z,54.10
2017-08-02T02:40:11.926Z,54.10
2017-08-02T02:42:39.485Z,54.10
2017-08-02T02:45:06.990Z,54.10
2017-08-02T02:47:34.519Z,54.10
2017-08-02T02:50:02.709Z,54.00
2017-08-02T02:52:30.205Z,54.20
2017-08-02T02:54:57.725Z,54.10
2017-08-02T02:57:25.226Z,54.10
2017-08-02T02:59:52.742Z,54.20
2017-08-02T03:02:20.253Z,54.20
2017-08-02T03:04:47.753Z,54.10
2017-08-02T03:07:15.303Z,54.10
2017-08-02T03:09:42.822Z,54.20
2017-08-02T03:12:10.346Z,54.20
2017-08-02T03:14:38.618Z,54.30
2017-08-02T03:17:06.150Z,54.20
2017-08-02T03:19:33.650Z,54.30
2017-08-02T03:22:01.918Z,54.30
2017-08-02T03:24:29.583Z,54.20
2017-08-02T03:26:57.845Z,54.20
2017-08-02T03:29:25.382Z,54.20
2017-08-02T03:31:52.877Z,54.30
2017-08-02T03:34:21.139Z,54.20
2017-08-02T03:36:48.669Z,54.10
2017-08-02T03:39:16.209Z,54.20
2017-08-02T03:41:43.752Z,54.20
2017-08-02T03:44:11.241Z,54.10
2017-08-02T03:46:38.753Z,54.20
2017-08-02T03:49:06.387Z,54.20
2017-08-02T03:51:33.897Z,54.20
2017-08-02T03:54:01.438Z,54.30
2017-08-02T03:56:29.054Z,54.30
2017-08-02T03:58:56.582Z,54.20
2017-08-02T04:03:58.122Z,54.10
2017-08-02T04:06:25.655Z,54.20
2017-08-02T04:08:53.186Z,54.20
2017-08-02T04:11:20.704Z,54.20
2017-08-02T04:13:48.209Z,54.30
2017-08-02T04:16:15.729Z,54.30
2017-08-02T04:18:43.354Z,54.30
2017-08-02T04:21:12.337Z,55.00
2017-08-02T04:23:40.655Z,55.00
2017-08-02T04:26:08.154Z,54.30
2017-08-02T04:28:35.683Z,54.30
2017-08-02T04:31:03.173Z,54.50
2017-08-02T04:33:30.730Z,54.50
2017-08-02T04:35:58.266Z,54.30
2017-08-02T04:38:25.814Z,54.40
2017-08-02T04:40:53.318Z,54.40
2017-08-02T04:43:20.919Z,54.30
2017-08-02T04:45:48.418Z,54.30
2017-08-02T04:48:16.710Z,54.30
2017-08-02T04:50:44.235Z,54.30
2017-08-02T04:53:11.749Z,54.50
2017-08-02T04:55:40.151Z,55.30
2017-08-02T04:58:07.649Z,54.50
2017-08-02T05:00:35.193Z,54.40
2017-08-02T05:03:02.829Z,54.50
2017-08-02T05:05:30.371Z,54.50
2017-08-02T05:07:58.649Z,54.50
2017-08-02T05:10:26.184Z,54.50
2017-08-02T05:12:53.687Z,54.50
2017-08-02T05:15:21.190Z,54.50
2017-08-02T05:17:48.737Z,54.50
2017-08-02T05:20:16.253Z,54.50
2017-08-02T05:22:43.758Z,54.60
2017-08-02T05:25:11.277Z,54.60
2017-08-02T05:27:38.785Z,54.50
2017-08-02T05:30:06.337Z,54.50
2017-08-02T05:32:33.844Z,54.50
2017-08-02T05:35:01.373Z,54.50
2017-08-02T05:37:29.650Z,53.90
2017-08-02T05:39:57.934Z,54.60
2017-08-02T05:42:26.275Z,54.60
2017-08-02T05:44:53.790Z,54.60
2017-08-02T05:47:21.319Z,55.30
2017-08-02T05:49:49.618Z,54.60
2017-08-02T05:52:17.106Z,54.60
2017-08-02T05:54:44.823Z,54.60
2017-08-02T05:57:13.081Z,54.40
2017-08-02T05:59:41.377Z,54.40
2017-08-02T06:02:08.889Z,54.30
2017-08-02T06:04:36.445Z,54.40
2017-08-02T06:07:03.986Z,55.10
2017-08-02T06:09:31.554Z,54.60
2017-08-02T06:11:59.134Z,54.60
2017-08-02T06:14:26.710Z,54.60
2017-08-02T06:16:55.023Z,54.50
2017-08-02T06:19:22.516Z,54.50
2017-08-02T06:21:50.198Z,54.60
2017-08-02T06:24:17.757Z,54.60
2017-08-02T06:26:45.261Z,54.70
2017-08-02T06:29:12.807Z,54.70
2017-08-02T06:31:41.077Z,54.70
2017-08-02T06:34:09.357Z,54.50
2017-08-02T06:36:36.918Z,54.50
2017-08-02T06:39:04.418Z,54.50
2017-08-02T06:41:31.962Z,54.60
2017-08-02T06:43:59.472Z,54.60
2017-08-02T06:46:27.771Z,54.80
2017-08-02T06:48:55.305Z,54.40
2017-08-02T06:51:23.596Z,55.60
2017-08-02T06:53:51.898Z,54.70
2017-08-02T06:56:19.403Z,54.60
2017-08-02T06:58:46.934Z,54.70
2017-08-02T07:01:14.457Z,54.50
2017-08-02T07:03:41.973Z,54.50
2017-08-02T07:06:09.593Z,54.60
2017-08-02T07:08:37.102Z,54.70
2017-08-02T07:11:04.622Z,54.60
2017-08-02T07:13:32.129Z,54.70
2017-08-02T07:16:00.426Z,54.50
2017-08-02T07:18:27.946Z,54.50
2017-08-02T07:20:55.549Z,54.40
2017-08-02T07:23:23.108Z,54.30
2017-08-02T07:25:50.749Z,54.40
2017-08-02T07:28:19.023Z,54.30
2017-08-02T07:30:47.297Z,54.40
2017-08-02T07:33:15.600Z,54.40
2017-08-02T07:35:43.135Z,54.30
2017-08-02T07:38:11.402Z,54.50
2017-08-02T07:40:39.786Z,55.40
2017-08-02T07:43:08.048Z,55.20
2017-08-02T07:45:35.557Z,54.40
2017-08-02T07:48:03.086Z,54.40
2017-08-02T07:50:30.768Z,54.40
2017-08-02T07:52:58.322Z,54.40
2017-08-02T07:55:25.853Z,54.40
2017-08-02T07:57:54.146Z,54.40
2017-08-02T08:00:22.414Z,54.40
2017-08-02T08:02:50.695Z,54.40
2017-08-02T08:05:18.197Z,54.40
2017-08-02T08:07:45.730Z,54.40
2017-08-02T08:10:13.280Z,54.40
2017-08-02T08:12:40.955Z,54.40
2017-08-02T08:15:08.465Z,54.50
2017-08-02T08:17:36.009Z,54.50
2017-08-02T08:20:03.509Z,55.20
2017-08-02T08:22:31.037Z,54.50
2017-08-02T08:24:58.561Z,54.50
2017-08-02T08:27:26.145Z,54.50
2017-08-02T08:29:53.678Z,54.40
2017-08-02T08:32:21.195Z,54.40
2017-08-02T08:34:49.501Z,54.30
2017-08-02T08:37:17.037Z,54.30
2017-08-02T08:39:44.545Z,54.40
2017-08-02T08:42:12.088Z,54.50
2017-08-02T08:44:39.601Z,54.30
2017-08-02T08:47:07.933Z,54.40
2017-08-02T08:49:35.476Z,54.30
2017-08-02T08:52:03.036Z,54.30
2017-08-02T08:54:30.636Z,54.40
2017-08-02T08:56:58.144Z,54.40
2017-08-02T08:59:25.650Z,54.40
2017-08-02T09:01:53.186Z,54.40
2017-08-02T09:04:20.687Z,54.40
2017-08-02T09:06:48.207Z,54.40
2017-08-02T09:09:15.730Z,54.40
2017-08-02T09:11:43.250Z,54.40
2017-08-02T09:14:10.771Z,54.40
2017-08-02T09:16:38.309Z,54.40
2017-08-02T09:19:05.838Z,54.60
2017-08-02T09:21:34.126Z,54.30
2017-08-02T09:24:01.635Z,54.30
2017-08-02T09:26:29.158Z,54.50
2017-08-02T09:28:57.567Z,54.50
2017-08-02T09:31:25.097Z,54.40
2017-08-02T09:33:52.640Z,54.40
2017-08-02T09:36:20.942Z,54.30
2017-08-02T09:38:48.454Z,54.30
2017-08-02T09:41:17.182Z,54.40
2017-08-02T09:43:44.703Z,54.30
2017-08-02T09:46:12.961Z,54.30
2017-08-02T09:48:41.269Z,53.90
2017-08-02T09:51:08.799Z,54.30
2017-08-02T09:53:36.333Z,54.30
2017-08-02T09:56:03.906Z,54.30
2017-08-02T09:58:31.385Z,54.30
2017-08-02T10:00:58.938Z,54.30
2017-08-02T10:03:26.442Z,54.30
2017-08-02T10:05:54.735Z,54.30
2017-08-02T10:08:22.306Z,54.30
2017-08-02T10:10:49.799Z,54.20
2017-08-02T10:13:17.341Z,54.30
2017-08-02T10:15:44.865Z,54.30
2017-08-02T10:18:12.393Z,54.20
2017-08-02T10:20:39.934Z,54.20
2017-08-02T10:23:07.453Z,54.20
2017-08-02T10:25:34.998Z,54.30
2017-08-02T10:28:02.518Z,54.40
2017-08-02T10:30:30.098Z,54.30
2017-08-02T10:32:58.427Z,54.20
2017-08-02T10:35:25.974Z,54.20
2017-08-02T10:37:53.507Z,54.20
2017-08-02T10:40:21.019Z,54.20
2017-08-02T10:42:48.626Z,54.10
2017-08-02T10:45:16.146Z,54.10
2017-08-02T10:47:43.648Z,54.20
2017-08-02T10:50:11.167Z,54.10
2017-08-02T10:52:38.677Z,54.10
2017-08-02T10:55:06.181Z,54.20
2017-08-02T10:57:33.703Z,54.10
2017-08-02T11:00:01.223Z,54.10
2017-08-02T11:02:28.747Z,54.10
2017-08-02T11:04:56.242Z,54.10
2017-08-02T11:07:23.765Z,54.00
2017-08-02T11:09:51.265Z,54.10
2017-08-02T11:12:18.858Z,54.20
2017-08-02T11:14:46.415Z,54.10
2017-08-02T11:17:13.969Z,54.00
2017-08-02T11:19:41.716Z,54.00
2017-08-02T11:22:09.224Z,54.00
2017-08-02T11:24:36.778Z,54.10
2017-08-02T11:27:04.283Z,54.10
2017-08-02T11:29:31.868Z,54.00
2017-08-02T11:31:59.401Z,54.00
2017-08-02T11:34:26.892Z,54.10
2017-08-02T11:36:54.401Z,54.00
2017-08-02T11:39:22.674Z,54.00
2017-08-02T11:41:50.957Z,54.00
2017-08-02T11:44:18.496Z,54.00
2017-08-02T11:46:46.016Z,54.00
2017-08-02T11:49:13.526Z,54.00
2017-08-02T11:51:41.824Z,54.00
2017-08-02T11:54:09.322Z,54.00
2017-08-02T11:56:36.836Z,53.90
2017-08-02T11:59:04.336Z,53.80
2017-08-02T12:01:31.876Z,53.90
2017-08-02T12:04:00.201Z,53.90
2017-08-02T12:06:27.837Z,53.90
2017-08-02T12:08:55.422Z,53.80
2017-08-02T12:11:22.943Z,53.90
2017-08-02T12:13:50.494Z,53.90
2017-08-02T12:16:18.780Z,53.90
2017-08-02T12:18:46.293Z,53.90
2017-08-02T12:21:13.810Z,53.80
2017-08-02T12:23:41.352Z,53.80
2017-08-02T12:26:09.597Z,53.80
2017-08-02T12:28:37.922Z,54.60
2017-08-02T12:31:05.426Z,53.80
2017-08-02T12:33:32.932Z,53.80
2017-08-02T12:36:00.456Z,54.60
2017-08-02T12:38:28.738Z,53.80
2017-08-02T12:40:57.028Z,53.80
2017-08-02T12:43:24.550Z,53.70
2017-08-02T12:45:52.101Z,53.80
2017-08-02T12:48:19.604Z,53.80
2017-08-02T12:50:47.873Z,53.80
2017-08-02T12:53:16.173Z,53.80
2017-08-02T12:55:43.698Z,53.70
2017-08-02T12:58:12.013Z,53.70
2017-08-02T13:00:39.670Z,53.80
2017-08-02T13:03:07.213Z,53.80
2017-08-02T13:05:36.390Z,54.10
2017-08-02T13:08:04.680Z,53.80
2017-08-02T13:10:32.997Z,53.80
2017-08-02T13:13:00.575Z,53.70
2017-08-02T13:15:28.083Z,53.70
2017-08-02T13:17:55.771Z,53.70
2017-08-02T13:20:23.284Z,53.70
2017-08-02T13:22:51.617Z,53.80
2017-08-02T13:25:19.117Z,53.70
2017-08-02T13:27:47.400Z,53.90
2017-08-02T13:30:14.942Z,53.80
2017-08-02T13:32:42.416Z,54.60
2017-08-02T13:35:09.960Z,53.80
2017-08-02T13:37:38.370Z,54.50
2017-08-02T13:40:05.896Z,53.70
2017-08-02T13:42:34.180Z,53.70
2017-08-02T13:45:02.472Z,53.90
2017-08-02T13:47:29.977Z,53.70
2017-08-02T13:49:57.522Z,53.70
2017-08-02T13:52:25.057Z,53.70
2017-08-02T13:54:52.576Z,53.70
2017-08-02T13:57:20.095Z,53.70
2017-08-02T13:59:47.638Z,53.70
2017-08-02T14:02:15.906Z,53.70
2017-08-02T14:04:44.199Z,53.70
2017-08-02T14:07:12.477Z,53.70
2017-08-02T14:09:40.767Z,53.70
2017-08-02T14:12:08.299Z,53.70
2017-08-02T14:14:36.556Z,53.20
2017-08-02T14:17:04.092Z,53.60
2017-08-02T14:19:31.586Z,53.70
2017-08-02T14:21:59.942Z,53.70
2017-08-02T14:24:27.519Z,53.60
2017-08-02T14:26:55.097Z,53.60
2017-08-02T14:29:22.642Z,53.60
2017-08-02T14:31:50.931Z,53.40
2017-08-02T14:34:18.451Z,53.60
2017-08-02T14:36:45.957Z,53.70
2017-08-02T14:39:13.598Z,53.60
2017-08-02T14:41:41.882Z,53.70
2017-08-02T14:44:10.164Z,53.70
2017-08-02T14:46:38.450Z,53.60
2017-08-02T14:49:05.965Z,53.60
2017-08-02T14:51:33.490Z,53.70
2017-08-02T14:54:01.019Z,53.60
2017-08-02T14:56:28.540Z,53.60
2017-08-02T14:58:56.057Z,53.70
2017-08-02T15:01:23.586Z,53.60
2017-08-02T15:03:51.113Z,53.60
2017-08-02T15:06:18.623Z,53.50
2017-08-02T15:08:46.917Z,53.60
2017-08-02T15:11:15.180Z,53.70
2017-08-02T15:13:43.490Z,53.70
2017-08-02T15:16:10.990Z,53.70
2017-08-02T15:18:38.530Z,54.50
2017-08-02T15:21:06.036Z,53.70
2017-08-02T15:23:34.545Z,53.80
2017-08-02T15:26:02.076Z,53.80
2017-08-02T15:28:30.361Z,53.70
2017-08-02T15:30:57.918Z,53.80
2017-08-02T15:33:25.427Z,53.70
2017-08-02T15:35:52.931Z,53.70
2017-08-02T15:38:20.451Z,53.80
2017-08-02T15:40:47.963Z,53.60
2017-08-02T15:43:15.495Z,53.60
2017-08-02T15:45:43.773Z,53.70
2017-08-02T15:48:12.090Z,53.70
2017-08-02T15:50:39.595Z,53.70
2017-08-02T15:53:07.117Z,53.60
2017-08-02T15:55:34.648Z,53.60
2017-08-02T15:58:02.166Z,53.70
2017-08-02T16:00:29.710Z,53.90
2017-08-02T16:02:57.189Z,53.80
2017-08-02T16:05:25.564Z,53.80
2017-08-02T16:07:53.063Z,53.70
2017-08-02T16:10:20.745Z,54.60
2017-08-02T16:12:48.282Z,53.60
2017-08-02T16:15:15.869Z,53.70
2017-08-02T16:17:43.413Z,53.70
2017-08-02T16:20:10.914Z,53.70
2017-08-02T16:22:39.224Z,53.70
2017-08-02T16:25:06.907Z,53.60
2017-08-02T16:27:34.451Z,53.70
2017-08-02T16:30:01.964Z,53.70
2017-08-02T16:32:29.494Z,53.70
2017-08-02T16:34:57.004Z,53.60
2017-08-02T16:37:25.334Z,53.70
2017-08-02T16:39:52.926Z,53.70
2017-08-02T16:42:21.239Z,53.70
2017-08-02T16:44:48.801Z,53.60
2017-08-02T16:47:16.407Z,53.70
2017-08-02T16:49:44.231Z,53.60
2017-08-02T16:52:11.803Z,53.70
2017-08-02T16:54:39.303Z,53.60
2017-08-02T16:57:07.606Z,53.60
2017-08-02T16:59:35.138Z,53.60
2017-08-02T17:02:03.410Z,53.70
2017-08-02T17:04:31.729Z,54.50
2017-08-02T17:06:59.285Z,53.60
2017-08-02T17:09:26.815Z,53.60
2017-08-02T17:11:55.108Z,53.60
2017-08-02T17:14:22.648Z,53.60
2017-08-02T17:16:50.956Z,53.70
2017-08-02T17:19:18.500Z,53.60
2017-08-02T17:21:46.788Z,53.60
2017-08-02T17:24:14.348Z,53.60
2017-08-02T17:26:41.877Z,53.70
2017-08-02T17:29:10.145Z,54.60
2017-08-02T17:31:37.687Z,53.60
2017-08-02T17:34:05.207Z,53.60
2017-08-02T17:36:32.777Z,53.60
2017-08-02T17:39:00.283Z,53.70
2017-08-02T17:41:27.837Z,53.70
2017-08-02T17:43:55.375Z,53.60
2017-08-02T17:46:23.004Z,53.70
2017-08-02T17:48:50.559Z,53.60
2017-08-02T17:51:18.675Z,53.60
2017-08-02T17:53:46.217Z,53.70
2017-08-02T17:56:13.743Z,53.70
2017-08-02T17:58:41.274Z,53.60
2017-08-02T18:01:09.751Z,53.60
2017-08-02T18:03:37.276Z,53.60
2017-08-02T18:06:04.803Z,53.10
2017-08-02T18:08:32.377Z,53.70
2017-08-02T18:10:59.943Z,53.60
2017-08-02T18:13:27.479Z,53.70
2017-08-02T18:15:55.009Z,53.70
2017-08-02T18:18:23.322Z,53.70
2017-08-02T18:20:50.878Z,53.70
2017-08-02T18:23:18.503Z,53.70
2017-08-02T18:25:46.059Z,53.70
2017-08-02T18:28:13.637Z,53.70
2017-08-02T18:30:41.170Z,53.70
2017-08-02T18:33:09.601Z,54.50
2017-08-02T18:35:37.160Z,53.70
2017-08-02T18:38:05.726Z,53.70
2017-08-02T18:40:33.893Z,53.70
2017-08-02T18:43:01.418Z,53.70
2017-08-02T18:45:29.920Z,54.40
2017-08-02T18:56:42.669Z,53.70
2017-08-02T18:59:10.232Z,53.70
2017-08-02T19:01:37.755Z,53.70
2017-08-02T19:04:05.294Z,53.80
2017-08-02T19:06:33.575Z,54.10
2017-08-02T19:09:01.176Z,53.80
2017-08-02T19:11:28.754Z,53.80
2017-08-02T19:13:56.286Z,53.80
2017-08-02T19:16:23.830Z,53.90
2017-08-02T19:18:51.348Z,53.90
2017-08-02T19:21:19.118Z,54.00
2017-08-02T19:23:46.612Z,53.90
2017-08-02T19:26:14.147Z,54.00
2017-08-02T19:28:42.523Z,54.00
2017-08-02T19:31:10.251Z,54.00
2017-08-02T19:33:37.754Z,54.20
2017-08-02T19:36:06.094Z,54.10
2017-08-02T19:38:33.686Z,54.10
2017-08-02T19:41:01.241Z,54.20
2017-08-02T19:43:28.742Z,54.20
2017-08-02T19:45:56.293Z,54.20
2017-08-02T19:48:23.844Z,54.30
2017-08-02T19:50:52.202Z,54.30
2017-08-02T19:53:19.787Z,54.30
2017-08-02T19:55:47.292Z,54.30
2017-08-02T19:58:14.919Z,54.30
2017-08-02T20:00:42.495Z,54.40
2017-08-02T20:03:10.025Z,54.20
2017-08-02T20:05:38.353Z,54.30
2017-08-02T20:08:06.002Z,54.30
2017-08-02T20:10:33.546Z,54.30
2017-08-02T20:13:01.118Z,54.30
2017-08-02T20:15:28.618Z,54.30
2017-08-02T20:17:56.147Z,54.40
2017-08-02T20:20:23.729Z,54.30
2017-08-02T20:22:51.234Z,54.30
2017-08-02T20:25:19.566Z,54.30
2017-08-02T20:27:47.092Z,54.30
2017-08-02T20:30:14.630Z,54.30
2017-08-02T20:32:42.159Z,54.40
2017-08-02T20:35:09.721Z,54.30
2017-08-02T20:37:37.543Z,54.30
2017-08-02T20:40:05.107Z,54.30
2017-08-02T20:42:32.617Z,54.30
2017-08-02T20:45:00.151Z,54.40
2017-08-02T20:47:27.684Z,54.30
2017-08-02T20:49:55.179Z,54.30
2017-08-02T20:52:22.800Z,54.40
2017-08-02T20:54:50.318Z,54.40
2017-08-02T20:57:17.874Z,54.30
2017-08-02T20:59:46.290Z,54.30
2017-08-02T21:02:13.902Z,54.30
2017-08-02T21:04:41.577Z,54.30
2017-08-02T21:07:09.109Z,54.30
2017-08-02T21:09:36.642Z,54.30
2017-08-02T21:12:04.162Z,54.30
2017-08-02T21:14:31.663Z,54.30
2017-08-02T21:16:59.195Z,54.30
2017-08-02T21:19:27.486Z,54.40
2017-08-02T21:21:54.995Z,54.40
2017-08-02T21:24:22.562Z,54.40
2017-08-02T21:26:50.853Z,54.60
2017-08-02T21:29:18.329Z,54.30
2017-08-02T21:31:46.610Z,54.40
2017-08-02T21:34:14.920Z,54.40
2017-08-02T21:36:42.450Z,54.40
2017-08-02T21:39:09.929Z,54.40
2017-08-02T21:41:37.493Z,54.40
2017-08-02T21:44:05.040Z,54.40
2017-08-02T21:46:32.513Z,54.40
2017-08-02T21:49:00.060Z,54.40
2017-08-02T21:51:27.662Z,54.40
2017-08-02T21:53:55.288Z,54.40
2017-08-02T21:56:22.787Z,54.30
2017-08-02T21:58:50.316Z,54.40
2017-08-02T22:01:29.898Z,54.30
2017-08-02T22:03:57.463Z,54.40
2017-08-02T22:06:25.742Z,54.30
2017-08-02T22:08:54.042Z,54.30
2017-08-02T22:11:22.062Z,54.30
2017-08-02T22:13:49.566Z,54.40
2017-08-02T22:16:17.876Z,54.50
2017-08-02T22:18:45.386Z,54.30
2017-08-02T22:21:12.997Z,54.30
2017-08-02T22:23:40.539Z,54.50
2017-08-02T22:26:10.961Z,54.30
2017-08-02T22:28:38.511Z,54.40
2017-08-02T22:31:06.834Z,54.40
2017-08-02T22:33:34.359Z,54.40
2017-08-02T22:36:02.650Z,54.40
2017-08-02T22:38:30.177Z,54.40
2017-08-02T22:40:58.540Z,54.40
2017-08-02T22:43:26.074Z,54.30
2017-08-02T22:45:53.592Z,54.40
2017-08-02T22:48:21.109Z,54.40
2017-08-02T22:50:48.673Z,54.40
2017-08-02T22:53:16.208Z,54.40
2017-08-02T22:55:43.718Z,54.40
2017-08-02T22:58:11.980Z,54.50
2017-08-02T23:00:39.625Z,54.40
2017-08-02T23:03:07.223Z,54.40
2017-08-02T23:05:35.546Z,54.40
2017-08-02T23:08:03.049Z,54.30
2017-08-02T23:10:31.343Z,54.50
2017-08-02T23:12:59.657Z,54.50
2017-08-02T23:15:27.154Z,54.50
2017-08-02T23:17:54.711Z,54.40
2017-08-02T23:20:22.219Z,54.50
2017-08-02T23:22:49.818Z,54.50
2017-08-02T23:25:17.334Z,54.50
2017-08-02T23:27:44.884Z,54.50
2017-08-02T23:30:13.179Z,54.50
2017-08-02T23:32:40.718Z,54.50
2017-08-02T23:35:08.951Z,55.30
2017-08-02T23:37:36.483Z,54.40
2017-08-02T23:40:04.091Z,54.50
2017-08-02T23:42:31.606Z,54.50
2017-08-02T23:44:59.109Z,54.50
2017-08-02T23:47:26.621Z,54.40
2017-08-02T23:49:54.157Z,54.40
2017-08-02T23:52:22.417Z,54.50
2017-08-02T23:54:50.685Z,54.40
2017-08-02T23:57:18.210Z,54.40
2017-08-02T23:59:45.728Z,54.40
